createdAt,value
2018-09-28T00:02:17.148Z,99.90
2018-09-28T00:04:46.519Z,99.90
2018-09-28T00:07:15.936Z,99.90
2018-09-28T00:09:45.281Z,99.90
2018-09-28T00:12:14.635Z,99.90
2018-09-28T00:14:44.036Z,99.90
2018-09-28T00:17:13.441Z,99.90
2018-09-28T00:19:42.750Z,99.90
2018-09-28T00:22:12.109Z,99.90
2018-09-28T00:24:41.397Z,99.90
2018-09-28T00:27:10.911Z,99.90
2018-09-28T00:29:40.268Z,99.90
2018-09-28T00:32:09.585Z,99.90
2018-09-28T00:34:38.873Z,99.90
2018-09-28T00:37:08.173Z,99.90
2018-09-28T00:39:37.444Z,99.90
2018-09-28T00:42:06.884Z,99.90
2018-09-28T00:44:36.388Z,99.90
2018-09-28T00:47:05.859Z,99.90
2018-09-28T00:49:35.214Z,99.90
2018-09-28T00:52:04.555Z,99.90
2018-09-28T00:54:33.817Z,99.90
2018-09-28T00:57:03.306Z,99.90
2018-09-28T00:59:32.576Z,99.90
2018-09-28T01:02:01.950Z,99.90
2018-09-28T01:04:31.281Z,99.90
2018-09-28T01:07:00.638Z,99.90
2018-09-28T01:09:29.938Z,99.90
2018-09-28T01:11:59.362Z,99.90
2018-09-28T01:14:28.632Z,99.90
2018-09-28T01:16:58.165Z,99.90
2018-09-28T01:19:27.494Z,99.90
2018-09-28T01:21:56.857Z,99.90
2018-09-28T01:24:26.232Z,99.90
2018-09-28T01:26:55.619Z,99.90
2018-09-28T01:29:25.007Z,99.90
2018-09-28T01:31:54.335Z,99.90
2018-09-28T01:34:23.685Z,99.90
2018-09-28T01:36:53.064Z,99.90
2018-09-28T01:39:22.385Z,99.90
2018-09-28T01:41:51.716Z,99.90
2018-09-28T01:44:21.037Z,99.90
2018-09-28T01:46:50.344Z,99.90
2018-09-28T01:49:19.715Z,99.90
2018-09-28T01:51:49.022Z,99.90
2018-09-28T01:54:18.359Z,99.90
2018-09-28T01:56:47.713Z,99.90
2018-09-28T01:59:17.031Z,99.90
2018-09-28T02:01:46.340Z,99.90
2018-09-28T02:04:15.694Z,99.90
2018-09-28T02:06:45.035Z,99.90
2018-09-28T02:09:14.417Z,99.90
2018-09-28T02:11:43.725Z,99.90
2018-09-28T02:14:13.070Z,99.90
2018-09-28T02:16:42.444Z,99.90
2018-09-28T02:19:11.757Z,99.90
2018-09-28T02:21:41.097Z,99.90
2018-09-28T02:24:10.455Z,99.90
2018-09-28T02:26:39.833Z,99.90
2018-09-28T02:29:09.667Z,99.90
2018-09-28T02:31:39.063Z,99.90
2018-09-28T02:34:08.425Z,99.90
2018-09-28T02:36:37.745Z,99.90
2018-09-28T02:39:07.940Z,99.90
2018-09-28T02:41:37.306Z,99.90
2018-09-28T02:44:06.635Z,99.90
2018-09-28T02:46:36.106Z,99.90
2018-09-28T02:49:05.650Z,99.90
2018-09-28T02:51:34.982Z,99.90
2018-09-28T02:54:04.299Z,99.90
2018-09-28T02:56:33.605Z,99.90
2018-09-28T02:59:02.870Z,99.90
2018-09-28T03:01:32.195Z,99.90
2018-09-28T03:04:01.574Z,99.90
2018-09-28T03:06:30.939Z,99.90
2018-09-28T03:09:00.297Z,99.90
2018-09-28T03:11:29.616Z,99.90
2018-09-28T03:13:58.883Z,99.90
2018-09-28T03:16:28.246Z,99.90
2018-09-28T03:18:57.555Z,99.90
2018-09-28T03:21:26.901Z,99.90
2018-09-28T03:23:56.179Z,99.90
2018-09-28T03:26:25.482Z,99.90
2018-09-28T03:28:54.773Z,99.90
2018-09-28T03:31:24.071Z,99.90
2018-09-28T03:33:53.343Z,99.90
2018-09-28T03:36:22.658Z,99.90
2018-09-28T03:38:51.916Z,99.90
2018-09-28T03:41:21.235Z,99.90
2018-09-28T03:43:50.536Z,99.90
2018-09-28T03:46:19.927Z,99.90
2018-09-28T03:48:49.256Z,99.90
2018-09-28T03:51:18.594Z,99.90
2018-09-28T03:53:47.847Z,99.90
2018-09-28T03:56:17.154Z,99.90
2018-09-28T03:58:46.400Z,99.90
2018-09-28T04:01:15.755Z,99.90
2018-09-28T04:03:45.047Z,99.90
2018-09-28T04:06:14.511Z,99.90
2018-09-28T04:08:43.790Z,99.90
2018-09-28T04:11:13.081Z,99.90
2018-09-28T04:13:42.325Z,99.90
2018-09-28T04:16:12.163Z,99.90
2018-09-28T04:18:41.439Z,99.90
2018-09-28T04:21:10.757Z,99.90
2018-09-28T04:23:40.056Z,99.90
2018-09-28T04:26:09.329Z,99.90
2018-09-28T04:28:38.811Z,99.90
2018-09-28T04:31:08.209Z,99.90
2018-09-28T04:33:37.523Z,99.90
2018-09-28T04:36:07.049Z,99.90
2018-09-28T04:38:36.458Z,99.90
2018-09-28T04:41:05.770Z,99.90
2018-09-28T04:43:35.551Z,99.90
2018-09-28T04:46:04.821Z,99.90
2018-09-28T04:48:34.137Z,99.90
2018-09-28T04:51:03.391Z,99.90
2018-09-28T04:53:32.698Z,99.90
2018-09-28T04:56:02.513Z,99.90
2018-09-28T04:58:31.793Z,99.90
2018-09-28T05:01:01.092Z,99.90
2018-09-28T05:03:30.466Z,99.90
2018-09-28T05:05:59.745Z,99.90
2018-09-28T05:08:29.173Z,99.90
2018-09-28T05:10:58.453Z,99.90
2018-09-28T05:13:27.722Z,99.90
2018-09-28T05:15:56.994Z,99.90
2018-09-28T05:18:26.289Z,99.90
2018-09-28T05:20:55.585Z,99.90
2018-09-28T05:23:24.908Z,99.90
2018-09-28T05:25:54.216Z,99.90
2018-09-28T05:28:23.520Z,99.90
2018-09-28T05:30:53.969Z,99.90
2018-09-28T05:33:22.105Z,99.90
2018-09-28T05:35:51.501Z,99.90
2018-09-28T05:38:20.747Z,99.90
2018-09-28T05:40:50.087Z,99.90
2018-09-28T05:43:19.793Z,99.90
2018-09-28T05:45:49.112Z,99.90
2018-09-28T05:48:18.377Z,99.90
2018-09-28T05:50:47.657Z,99.90
2018-09-28T05:53:17.198Z,99.90
2018-09-28T05:55:46.479Z,99.90
2018-09-28T05:58:21.017Z,99.90
2018-09-28T06:02:59.137Z,99.90
2018-09-28T06:05:36.961Z,99.90
2018-09-28T06:08:06.170Z,99.90
2018-09-28T06:10:35.483Z,99.90
2018-09-28T06:13:04.783Z,99.90
2018-09-28T06:15:34.145Z,99.90
2018-09-28T06:18:03.476Z,99.90
2018-09-28T06:20:32.871Z,99.90
2018-09-28T06:23:02.155Z,99.90
2018-09-28T06:25:31.462Z,99.90
2018-09-28T06:28:00.732Z,99.90
2018-09-28T06:30:30.094Z,99.90
2018-09-28T06:32:59.405Z,99.90
2018-09-28T06:35:28.946Z,99.90
2018-09-28T06:37:58.257Z,99.90
2018-09-28T06:40:27.565Z,99.90
2018-09-28T06:42:56.806Z,99.90
2018-09-28T06:45:26.145Z,99.90
2018-09-28T06:47:55.501Z,99.90
2018-09-28T06:50:24.741Z,99.90
2018-09-28T06:52:54.002Z,99.90
2018-09-28T06:55:23.281Z,99.90
2018-09-28T06:57:52.556Z,99.90
2018-09-28T07:00:21.909Z,99.90
2018-09-28T07:02:51.109Z,99.90
2018-09-28T07:05:20.424Z,99.90
2018-09-28T07:07:49.719Z,99.90
2018-09-28T07:10:18.986Z,99.90
2018-09-28T07:12:48.259Z,99.90
2018-09-28T07:15:17.511Z,99.90
2018-09-28T07:17:46.838Z,99.90
2018-09-28T07:20:16.065Z,99.90
2018-09-28T07:22:45.382Z,99.90
2018-09-28T07:25:14.695Z,99.90
2018-09-28T07:27:43.987Z,99.90
2018-09-28T07:30:13.336Z,99.90
2018-09-28T07:32:42.610Z,98.80
2018-09-28T07:35:11.902Z,97.00
2018-09-28T07:37:41.234Z,94.60
2018-09-28T07:40:10.497Z,93.30
2018-09-28T07:42:39.793Z,92.80
2018-09-28T07:45:09.061Z,91.30
2018-09-28T07:47:38.467Z,90.90
2018-09-28T07:50:07.698Z,90.10
2018-09-28T07:52:36.977Z,88.00
2018-09-28T07:55:06.225Z,86.80
2018-09-28T07:57:35.497Z,86.30
2018-09-28T08:00:04.791Z,85.80
2018-09-28T08:02:34.145Z,83.30
2018-09-28T08:05:03.489Z,81.70
2018-09-28T08:07:32.767Z,79.20
2018-09-28T08:10:02.144Z,78.80
2018-09-28T08:12:31.459Z,76.80
2018-09-28T08:15:00.738Z,74.30
2018-09-28T08:17:30.005Z,72.90
2018-09-28T08:19:59.294Z,71.40
2018-09-28T08:22:28.556Z,70.40
2018-09-28T08:24:57.913Z,69.20
2018-09-28T08:27:27.176Z,68.50
2018-09-28T08:29:56.453Z,68.20
2018-09-28T08:32:25.793Z,67.40
2018-09-28T08:34:55.299Z,67.30
2018-09-28T08:37:24.659Z,63.80
2018-09-28T08:39:54.795Z,63.30
2018-09-28T08:42:24.041Z,62.20
2018-09-28T08:44:53.297Z,60.40
2018-09-28T08:47:22.556Z,57.80
2018-09-28T08:49:51.850Z,56.80
2018-09-28T08:52:21.102Z,55.50
2018-09-28T08:54:50.405Z,55.70
2018-09-28T08:57:19.711Z,56.50
2018-09-28T08:59:49.102Z,57.30
2018-09-28T09:02:18.428Z,57.50
2018-09-28T09:04:47.692Z,55.90
2018-09-28T09:07:16.991Z,54.80
2018-09-28T09:09:46.314Z,52.80
2018-09-28T09:12:15.594Z,51.90
2018-09-28T09:14:44.847Z,53.00
2018-09-28T09:17:14.146Z,52.30
2018-09-28T09:19:43.406Z,51.00
2018-09-28T09:22:12.685Z,48.80
2018-09-28T09:24:41.935Z,49.70
2018-09-28T09:27:11.236Z,48.00
2018-09-28T09:29:40.487Z,48.50
2018-09-28T09:32:09.769Z,50.10
2018-09-28T09:34:39.049Z,48.20
2018-09-28T09:37:08.333Z,48.00
2018-09-28T09:39:37.602Z,48.20
2018-09-28T09:42:06.926Z,47.60
2018-09-28T09:44:36.235Z,46.50
2018-09-28T09:47:05.533Z,46.40
2018-09-28T09:49:34.790Z,45.80
2018-09-28T09:52:04.100Z,46.10
2018-09-28T09:54:33.358Z,45.60
2018-09-28T09:57:02.653Z,45.00
2018-09-28T09:59:31.963Z,45.30
2018-09-28T10:02:06.504Z,45.00
2018-09-28T10:04:35.814Z,46.20
2018-09-28T10:07:05.099Z,42.80
2018-09-28T10:09:34.363Z,42.50
2018-09-28T10:12:03.768Z,41.80
2018-09-28T10:14:33.070Z,39.80
2018-09-28T10:17:02.417Z,41.50
2018-09-28T10:19:31.687Z,42.00
2018-09-28T10:22:01.182Z,41.10
2018-09-28T10:24:30.575Z,42.40
2018-09-28T10:27:00.067Z,41.10
2018-09-28T10:29:29.405Z,40.80
2018-09-28T10:31:58.730Z,40.90
2018-09-28T10:34:28.064Z,41.40
2018-09-28T10:36:57.458Z,40.90
2018-09-28T10:39:26.779Z,41.80
2018-09-28T10:41:56.030Z,40.40
2018-09-28T10:44:25.299Z,40.20
2018-09-28T10:46:54.554Z,40.00
2018-09-28T10:49:24.123Z,40.90
2018-09-28T10:51:53.466Z,40.30
2018-09-28T10:54:22.706Z,41.10
2018-09-28T10:56:51.962Z,40.70
2018-09-28T10:59:21.443Z,40.50
2018-09-28T11:01:50.774Z,40.30
2018-09-28T11:04:20.204Z,39.70
2018-09-28T11:06:49.635Z,40.50
2018-09-28T11:09:18.961Z,40.40
2018-09-28T11:11:48.213Z,40.30
2018-09-28T11:14:17.521Z,39.90
2018-09-28T11:16:46.766Z,40.00
2018-09-28T11:19:16.052Z,40.00
2018-09-28T11:21:45.375Z,39.80
2018-09-28T11:24:14.623Z,38.40
2018-09-28T11:26:43.939Z,38.90
2018-09-28T11:29:13.258Z,39.40
2018-09-28T11:31:42.591Z,39.30
2018-09-28T11:34:11.917Z,40.20
2018-09-28T11:36:41.242Z,40.00
2018-09-28T11:39:10.619Z,39.30
2018-09-28T11:41:39.908Z,40.20
2018-09-28T11:44:09.514Z,39.60
2018-09-28T11:46:38.839Z,40.00
2018-09-28T11:49:08.189Z,40.70
2018-09-28T11:51:37.664Z,41.30
2018-09-28T11:54:06.945Z,40.90
2018-09-28T11:56:36.285Z,40.00
2018-09-28T11:59:05.627Z,40.20
2018-09-28T12:01:34.957Z,40.00
2018-09-28T12:04:04.445Z,40.50
2018-09-28T12:06:33.893Z,39.90
2018-09-28T12:09:03.218Z,42.50
2018-09-28T12:11:32.581Z,40.80
2018-09-28T12:14:01.931Z,40.70
2018-09-28T12:16:31.217Z,41.20
2018-09-28T12:19:00.490Z,40.10
2018-09-28T12:21:29.852Z,40.70
2018-09-28T12:23:59.149Z,40.00
2018-09-28T12:26:28.498Z,41.20
2018-09-28T12:28:57.786Z,40.50
2018-09-28T12:31:27.119Z,41.30
2018-09-28T12:33:56.411Z,41.30
2018-09-28T12:36:25.850Z,41.50
2018-09-28T12:38:55.669Z,43.40
2018-09-28T12:41:24.961Z,43.40
2018-09-28T12:43:54.254Z,41.80
2018-09-28T12:46:23.532Z,41.90
2018-09-28T12:48:52.835Z,42.00
2018-09-28T12:51:22.105Z,42.80
2018-09-28T12:53:51.354Z,43.70
2018-09-28T12:56:20.735Z,44.20
2018-09-28T12:58:50.016Z,43.30
2018-09-28T13:01:19.375Z,42.80
2018-09-28T13:03:48.690Z,42.80
2018-09-28T13:06:18.048Z,42.30
2018-09-28T13:08:47.376Z,43.00
2018-09-28T13:11:16.641Z,43.90
2018-09-28T13:13:45.963Z,44.00
2018-09-28T13:16:15.260Z,45.00
2018-09-28T13:18:44.685Z,45.70
2018-09-28T13:21:13.949Z,47.00
2018-09-28T13:23:43.242Z,47.80
2018-09-28T13:26:12.556Z,48.50
2018-09-28T13:28:41.849Z,49.00
2018-09-28T13:31:11.100Z,49.10
2018-09-28T13:33:40.381Z,49.30
2018-09-28T13:36:09.686Z,49.70
2018-09-28T13:38:39.091Z,49.80
2018-09-28T13:41:08.270Z,50.20
2018-09-28T13:43:37.575Z,50.80
2018-09-28T13:46:07.179Z,50.90
2018-09-28T13:48:36.544Z,50.90
2018-09-28T13:51:06.128Z,51.00
2018-09-28T13:53:35.425Z,51.00
2018-09-28T13:56:04.721Z,51.50
2018-09-28T13:58:34.071Z,51.50
2018-09-28T14:01:03.333Z,51.80
2018-09-28T14:03:32.633Z,51.30
2018-09-28T14:06:01.877Z,51.20
2018-09-28T14:08:31.189Z,50.90
2018-09-28T14:11:00.433Z,51.30
2018-09-28T14:13:29.689Z,51.50
2018-09-28T14:15:58.985Z,51.70
2018-09-28T14:18:28.238Z,50.50
2018-09-28T14:20:57.535Z,50.80
2018-09-28T14:23:26.826Z,50.60
2018-09-28T14:25:56.082Z,50.90
2018-09-28T14:28:25.379Z,50.60
2018-09-28T14:30:54.639Z,51.10
2018-09-28T14:33:23.862Z,51.00
2018-09-28T14:35:53.153Z,51.40
2018-09-28T14:38:22.440Z,51.30
2018-09-28T14:40:51.699Z,51.30
2018-09-28T14:43:20.936Z,51.70
2018-09-28T14:45:50.252Z,52.00
2018-09-28T14:48:19.598Z,52.30
2018-09-28T14:50:48.967Z,52.10
2018-09-28T14:53:18.124Z,52.10
2018-09-28T14:55:47.397Z,52.20
2018-09-28T14:58:16.728Z,52.30
2018-09-28T15:00:46.121Z,52.00
2018-09-28T15:03:15.336Z,52.20
2018-09-28T15:05:44.717Z,53.10
2018-09-28T15:08:14.087Z,51.60
2018-09-28T15:10:43.442Z,51.40
2018-09-28T15:13:12.673Z,52.40
2018-09-28T15:15:41.954Z,52.60
2018-09-28T15:18:11.236Z,52.50
2018-09-28T15:20:40.566Z,52.50
2018-09-28T15:23:09.831Z,52.60
2018-09-28T15:25:39.128Z,52.90
2018-09-28T15:28:08.429Z,53.30
2018-09-28T15:30:37.722Z,53.40
2018-09-28T15:33:07.008Z,53.30
2018-09-28T15:35:36.273Z,53.50
2018-09-28T15:38:05.582Z,53.70
2018-09-28T15:40:34.892Z,53.70
2018-09-28T15:43:04.157Z,55.20
2018-09-28T15:45:33.419Z,58.50
2018-09-28T15:48:03.858Z,60.70
2018-09-28T15:50:33.309Z,63.10
2018-09-28T15:53:02.592Z,65.30
2018-09-28T15:55:31.878Z,67.40
2018-09-28T15:58:01.206Z,68.70
2018-09-28T16:00:30.465Z,69.20
2018-09-28T16:02:59.753Z,69.70
2018-09-28T16:05:29.053Z,70.30
2018-09-28T16:07:58.348Z,70.60
2018-09-28T16:10:27.627Z,71.70
2018-09-28T16:12:57.060Z,71.70
2018-09-28T16:15:26.449Z,72.00
2018-09-28T16:17:55.820Z,72.50
2018-09-28T16:20:25.069Z,72.80
2018-09-28T16:22:54.402Z,73.10
2018-09-28T16:25:23.705Z,73.90
2018-09-28T16:27:53.109Z,74.00
2018-09-28T16:30:22.415Z,74.80
2018-09-28T16:32:51.910Z,75.60
2018-09-28T16:35:21.200Z,77.10
2018-09-28T16:37:50.573Z,78.50
2018-09-28T16:40:19.893Z,80.50
2018-09-28T16:42:49.155Z,82.10
2018-09-28T16:45:18.493Z,84.60
2018-09-28T16:47:47.791Z,88.20
2018-09-28T16:50:17.048Z,90.70
2018-09-28T16:52:46.316Z,92.20
2018-09-28T16:55:15.624Z,93.90
2018-09-28T16:57:44.900Z,95.70
2018-09-28T17:00:14.254Z,98.20
2018-09-28T17:02:43.546Z,99.90
2018-09-28T17:05:12.872Z,99.90
2018-09-28T17:07:42.171Z,99.90
2018-09-28T17:10:11.470Z,99.90
2018-09-28T17:12:40.767Z,99.90
2018-09-28T17:15:10.140Z,99.90
2018-09-28T17:17:39.402Z,99.90
2018-09-28T17:20:08.659Z,99.90
2018-09-28T17:22:37.921Z,99.90
2018-09-28T17:25:07.204Z,99.90
2018-09-28T17:27:36.501Z,99.90
2018-09-28T17:30:05.797Z,99.90
2018-09-28T17:32:35.134Z,99.90
2018-09-28T17:35:04.606Z,99.90
2018-09-28T17:37:33.973Z,99.90
2018-09-28T17:40:03.295Z,99.90
2018-09-28T17:42:32.645Z,99.90
2018-09-28T17:45:01.962Z,99.90
2018-09-28T17:47:31.311Z,99.90
2018-09-28T17:50:00.598Z,99.90
2018-09-28T17:52:29.918Z,99.90
2018-09-28T17:54:59.197Z,99.90
2018-09-28T17:57:28.550Z,99.90
2018-09-28T17:59:57.814Z,99.90
2018-09-28T18:02:27.178Z,99.90
2018-09-28T18:04:56.516Z,99.90
2018-09-28T18:07:25.794Z,99.90
2018-09-28T18:09:55.102Z,99.90
2018-09-28T18:12:24.413Z,99.90
2018-09-28T18:14:53.702Z,99.90
2018-09-28T18:17:23.043Z,99.90
2018-09-28T18:19:52.399Z,99.90
2018-09-28T18:22:21.987Z,99.90
2018-09-28T18:24:51.255Z,99.90
2018-09-28T18:27:20.591Z,99.90
2018-09-28T18:29:49.852Z,99.90
2018-09-28T18:32:19.116Z,99.90
2018-09-28T18:34:48.421Z,99.90
2018-09-28T18:37:17.746Z,99.90
2018-09-28T18:39:47.008Z,99.90
2018-09-28T18:42:16.320Z,99.90
2018-09-28T18:44:45.689Z,99.90
2018-09-28T18:47:14.941Z,99.90
2018-09-28T18:49:44.266Z,99.90
2018-09-28T18:52:13.747Z,99.90
2018-09-28T18:54:43.046Z,99.90
2018-09-28T18:57:12.325Z,99.90
2018-09-28T18:59:41.681Z,99.90
2018-09-28T19:02:11.403Z,99.90
2018-09-28T19:04:40.945Z,99.90
2018-09-28T19:07:10.969Z,99.90
2018-09-28T19:09:40.641Z,99.90
2018-09-28T19:12:10.309Z,99.90
2018-09-28T19:14:39.758Z,99.90
2018-09-28T19:17:09.228Z,99.90
2018-09-28T19:19:38.917Z,99.90
2018-09-28T19:22:08.478Z,99.90
2018-09-28T19:24:38.309Z,99.90
2018-09-28T19:27:07.740Z,99.90
2018-09-28T19:29:37.482Z,99.90
2018-09-28T19:32:07.212Z,99.90
2018-09-28T19:34:36.697Z,99.90
2018-09-28T19:37:06.170Z,99.90
2018-09-28T19:39:35.822Z,99.90
2018-09-28T19:42:05.263Z,99.90
2018-09-28T19:44:35.016Z,99.90
2018-09-28T19:47:04.386Z,99.90
2018-09-28T19:49:34.557Z,99.90
2018-09-28T19:52:04.143Z,99.90
2018-09-28T19:54:33.536Z,99.90
2018-09-28T19:57:02.950Z,99.90
2018-09-28T19:59:32.240Z,99.90
2018-09-28T20:02:01.559Z,99.90
2018-09-28T20:04:30.848Z,99.90
2018-09-28T20:07:00.182Z,99.90
2018-09-28T20:09:29.510Z,99.90
2018-09-28T20:11:58.823Z,99.90
2018-09-28T20:14:28.057Z,99.90
2018-09-28T20:16:57.361Z,99.90
2018-09-28T20:19:26.622Z,99.90
2018-09-28T20:21:55.961Z,99.90
2018-09-28T20:24:25.227Z,99.90
2018-09-28T20:26:54.605Z,99.90
2018-09-28T20:29:23.925Z,99.90
2018-09-28T20:31:53.212Z,99.90
2018-09-28T20:34:22.509Z,99.90
2018-09-28T20:36:51.838Z,99.90
2018-09-28T20:39:21.571Z,99.90
2018-09-28T20:41:50.968Z,99.90
2018-09-28T20:44:20.269Z,99.90
2018-09-28T20:46:49.614Z,99.90
2018-09-28T20:49:18.871Z,99.90
2018-09-28T20:51:48.122Z,99.90
2018-09-28T20:54:17.427Z,99.90
2018-09-28T20:56:47.807Z,99.90
2018-09-28T20:59:17.152Z,99.90
2018-09-28T21:01:46.409Z,99.90
2018-09-28T21:04:15.714Z,99.90
2018-09-28T21:06:44.974Z,99.90
2018-09-28T21:09:14.316Z,99.90
2018-09-28T21:11:43.566Z,99.90
2018-09-28T21:14:12.866Z,99.90
2018-09-28T21:16:42.129Z,99.90
2018-09-28T21:19:11.743Z,99.90
2018-09-28T21:21:41.003Z,99.90
2018-09-28T21:24:10.308Z,99.90
2018-09-28T21:26:39.559Z,99.90
2018-09-28T21:29:08.830Z,99.90
2018-09-28T21:31:38.190Z,99.90
2018-09-28T21:34:07.522Z,99.90
2018-09-28T21:36:36.788Z,99.90
2018-09-28T21:39:08.315Z,99.90
2018-09-28T21:41:37.663Z,99.90
2018-09-28T21:44:07.467Z,99.90
2018-09-28T21:46:36.924Z,99.90
2018-09-28T21:49:06.230Z,99.90
2018-09-28T21:51:35.771Z,99.90
2018-09-28T21:54:05.056Z,99.90
2018-09-28T21:56:34.314Z,99.90
2018-09-28T21:59:03.587Z,99.90
2018-09-28T22:01:32.903Z,99.90
2018-09-28T22:04:02.204Z,99.90
2018-09-28T22:06:31.525Z,99.90
2018-09-28T22:09:00.815Z,99.90
2018-09-28T22:11:30.154Z,99.90
2018-09-28T22:13:59.474Z,99.90
2018-09-28T22:16:28.973Z,99.90
2018-09-28T22:18:58.238Z,99.90
2018-09-28T22:21:27.525Z,99.90
2018-09-28T22:23:56.788Z,99.90
2018-09-28T22:26:26.119Z,99.90
2018-09-28T22:28:55.466Z,99.90
2018-09-28T22:31:24.830Z,99.90
2018-09-28T22:33:54.121Z,99.90
2018-09-28T22:36:23.469Z,99.90
2018-09-28T22:38:52.777Z,99.90
2018-09-28T22:41:22.168Z,99.90
2018-09-28T22:43:51.851Z,99.90
2018-09-28T22:46:21.279Z,99.90
2018-09-28T22:48:50.575Z,99.90
2018-09-28T22:51:19.857Z,99.90
2018-09-28T22:53:49.122Z,99.90
2018-09-28T22:56:18.428Z,99.90
2018-09-28T22:58:47.711Z,99.90
2018-09-28T23:01:17.037Z,99.90
2018-09-28T23:03:46.393Z,99.90
2018-09-28T23:06:15.842Z,99.90
2018-09-28T23:08:45.125Z,99.90
2018-09-28T23:11:14.424Z,99.90
2018-09-28T23:13:43.700Z,99.90
2018-09-28T23:16:13.005Z,99.90
2018-09-28T23:18:42.296Z,99.90
2018-09-28T23:21:11.577Z,99.90
2018-09-28T23:23:41.025Z,99.90
2018-09-28T23:26:10.310Z,99.90
2018-09-28T23:28:39.862Z,99.90
2018-09-28T23:31:09.122Z,99.90
2018-09-28T23:33:38.476Z,99.90
2018-09-28T23:36:07.790Z,99.90
2018-09-28T23:38:37.097Z,99.90
2018-09-28T23:41:06.379Z,99.90
2018-09-28T23:43:35.678Z,99.90
2018-09-28T23:46:04.949Z,99.90
2018-09-28T23:48:34.209Z,99.90
2018-09-28T23:51:03.497Z,99.90
2018-09-28T23:53:32.790Z,99.90
2018-09-28T23:56:02.051Z,99.90
2018-09-28T23:58:31.351Z,99.90
